Time;durP1;ratioP1;P1;durP2;ratioP2;P2;SDS_P1;SDS_P2;PMS_P1;PMS_P2;Temp;Humidity;BMP_temperature;BMP_pressure;BME280_temperature;BME280_humidity;BME280_pressure;Samples;Min_cycle;Max_cycle;Signal;HPM_P1;HPM_P2
2022/07/22 00:00:05;;;;;;;;;;;23.20;73.00;;;;;;5050972;28;20386;-76
2022/07/22 00:02:32;;;;;;;;;;;23.20;73.10;;;;;;5053255;28;19932;-76
2022/07/22 00:04:59;;;;;;;;;;;23.20;73.10;;;;;;5058207;28;20007;-75
2022/07/22 00:07:27;;;;;;;;;;;23.10;73.10;;;;;;5052750;28;20596;-76
2022/07/22 00:09:54;;;;;;;;;;;23.10;73.20;;;;;;5054177;28;19924;-76
2022/07/22 00:12:21;;;;;;;;;;;23.10;73.30;;;;;;5050133;28;19978;-75
2022/07/22 00:14:48;;;;;;;;;;;23.10;73.40;;;;;;5051737;28;19967;-74
2022/07/22 00:17:15;;;;;;;;;;;23.00;73.20;;;;;;5054845;28;19924;-75
2022/07/22 00:19:41;;;;;;;;;;;23.00;73.50;;;;;;5054415;28;19964;-76
2022/07/22 00:22:08;;;;;;;;;;;23.00;73.40;;;;;;5051900;28;20018;-77
2022/07/22 00:24:37;;;;;;;;;;;23.00;73.50;;;;;;5044682;28;19933;-76
2022/07/22 00:27:03;;;;;;;;;;;22.90;73.50;;;;;;5048009;28;19994;-76
2022/07/22 00:29:30;;;;;;;;;;;22.90;73.60;;;;;;5034905;28;20395;-74
2022/07/22 00:31:57;;;;;;;;;;;22.90;73.70;;;;;;5053769;28;19932;-75
2022/07/22 00:34:24;;;;;;;;;;;22.90;73.60;;;;;;5031910;28;19928;-75
2022/07/22 00:36:52;;;;;;;;;;;22.80;73.60;;;;;;5051942;28;19933;-76
2022/07/22 00:39:19;;;;;;;;;;;22.80;73.60;;;;;;5031902;28;19924;-74
2022/07/22 00:41:47;;;;;;;;;;;22.80;73.70;;;;;;5044574;28;20354;-75
2022/07/22 00:44:14;;;;;;;;;;;22.80;73.80;;;;;;5045977;28;19971;-73
2022/07/22 00:46:42;;;;;;;;;;;22.70;73.70;;;;;;5027030;28;19935;-76
2022/07/22 00:49:09;;;;;;;;;;;22.70;73.70;;;;;;5028351;28;19944;-75
2022/07/22 00:51:39;;;;;;;;;;;22.70;73.80;;;;;;5046437;28;19928;-75
2022/07/22 00:54:06;;;;;;;;;;;22.70;73.80;;;;;;5050564;28;19925;-76
2022/07/22 00:56:33;;;;;;;;;;;22.60;73.70;;;;;;5035809;28;19932;-75
2022/07/22 00:59:04;;;;;;;;;;;22.60;73.70;;;;;;5037787;28;19959;-74
2022/07/22 01:01:30;;;;;;;;;;;22.60;73.70;;;;;;5046930;28;19931;-75
2022/07/22 01:03:57;;;;;;;;;;;22.60;73.70;;;;;;5046811;28;19943;-75
2022/07/22 01:06:24;;;;;;;;;;;22.50;74.30;;;;;;5053126;28;20386;-76
2022/07/22 01:08:51;;;;;;;;;;;22.50;73.80;;;;;;5040980;28;20011;-76
2022/07/22 01:11:20;;;;;;;;;;;22.50;73.70;;;;;;5029618;28;19925;-76
2022/07/22 01:13:48;;;;;;;;;;;22.50;73.90;;;;;;5046994;28;19964;-75
2022/07/22 01:16:18;;;;;;;;;;;22.40;73.90;;;;;;5049672;28;19933;-75
2022/07/22 01:18:45;;;;;;;;;;;22.40;74.00;;;;;;5028845;28;20400;-76
2022/07/22 01:21:14;;;;;;;;;;;22.40;74.00;;;;;;5034715;28;19935;-74
2022/07/22 01:23:42;;;;;;;;;;;22.40;74.10;;;;;;5039414;28;19956;-76
2022/07/22 01:26:09;;;;;;;;;;;22.40;74.20;;;;;;5053791;28;20343;-75
2022/07/22 01:28:36;;;;;;;;;;;22.30;74.10;;;;;;5038285;28;20008;-75
2022/07/22 01:31:03;;;;;;;;;;;22.30;74.20;;;;;;5035873;28;19932;-76
2022/07/22 01:33:30;;;;;;;;;;;22.30;74.20;;;;;;5039505;28;20255;-76
2022/07/22 01:35:57;;;;;;;;;;;22.30;74.20;;;;;;5028674;28;19929;-74
2022/07/22 01:38:25;;;;;;;;;;;22.30;74.30;;;;;;5028216;28;19931;-75
2022/07/22 01:40:52;;;;;;;;;;;22.20;74.20;;;;;;5037601;28;20116;-76
2022/07/22 01:43:20;;;;;;;;;;;22.20;74.30;;;;;;5040101;28;19928;-76
2022/07/22 01:45:49;;;;;;;;;;;22.20;74.50;;;;;;5053185;28;21532;-75
2022/07/22 01:48:16;;;;;;;;;;;22.20;74.50;;;;;;5031028;28;19928;-76
2022/07/22 01:50:43;;;;;;;;;;;22.10;74.60;;;;;;5027098;28;19936;-76
2022/07/22 01:53:10;;;;;;;;;;;22.10;74.70;;;;;;5031216;28;20390;-76
2022/07/22 01:55:39;;;;;;;;;;;22.10;74.70;;;;;;5030807;28;19928;-75
2022/07/22 01:58:06;;;;;;;;;;;22.10;74.70;;;;;;5047045;28;19928;-76
2022/07/22 02:00:35;;;;;;;;;;;22.00;74.70;;;;;;5028095;28;20752;-75
2022/07/22 02:03:04;;;;;;;;;;;22.00;74.80;;;;;;5030914;28;20890;-76
2022/07/22 02:05:32;;;;;;;;;;;22.00;74.90;;;;;;5021700;28;20031;-75
2022/07/22 02:08:05;;;;;;;;;;;22.00;74.70;;;;;;5037416;28;19933;-76
2022/07/22 02:10:45;;;;;;;;;;;21.90;74.70;;;;;;5035742;28;19924;-76
2022/07/22 02:13:13;;;;;;;;;;;21.90;74.80;;;;;;5026012;28;20475;-76
2022/07/22 02:15:39;;;;;;;;;;;21.90;74.90;;;;;;5028909;28;20352;-76
2022/07/22 02:18:13;;;;;;;;;;;21.90;74.90;;;;;;5030949;28;20607;-76
2022/07/22 02:20:44;;;;;;;;;;;21.90;75.00;;;;;;5028844;28;20037;-76
2022/07/22 02:23:11;;;;;;;;;;;21.90;75.00;;;;;;5048701;28;20379;-76
2022/07/22 02:25:39;;;;;;;;;;;21.80;74.90;;;;;;5028379;28;20311;-75
2022/07/22 02:28:08;;;;;;;;;;;21.80;75.00;;;;;;5049646;28;20484;-76
2022/07/22 02:30:35;;;;;;;;;;;21.80;75.20;;;;;;5023350;28;20030;-75
2022/07/22 02:33:02;;;;;;;;;;;21.70;74.90;;;;;;5033903;28;19943;-75
2022/07/22 02:35:29;;;;;;;;;;;21.70;75.10;;;;;;5028041;28;19925;-74
2022/07/22 02:37:56;;;;;;;;;;;21.70;75.20;;;;;;5024963;28;20684;-75
2022/07/22 02:40:23;;;;;;;;;;;21.70;75.20;;;;;;5029347;28;20386;-75
2022/07/22 02:42:50;;;;;;;;;;;21.70;75.20;;;;;;5044381;28;20064;-74
2022/07/22 02:45:18;;;;;;;;;;;21.60;75.20;;;;;;5028379;28;19924;-75
2022/07/22 02:47:47;;;;;;;;;;;21.60;75.30;;;;;;5028969;28;20055;-75
2022/07/22 02:50:14;;;;;;;;;;;21.60;75.30;;;;;;5033301;28;19978;-75
2022/07/22 02:52:41;;;;;;;;;;;21.60;75.40;;;;;;5029762;28;19933;-74
2022/07/22 02:55:08;;;;;;;;;;;21.60;75.40;;;;;;5032058;28;19932;-76
2022/07/22 02:57:35;;;;;;;;;;;21.50;75.30;;;;;;5048742;28;20470;-74
2022/07/22 03:00:02;;;;;;;;;;;21.60;75.40;;;;;;5035210;28;19942;-74
2022/07/22 03:02:36;;;;;;;;;;;21.50;75.30;;;;;;5032072;28;19925;-74
2022/07/22 03:05:03;;;;;;;;;;;21.50;75.20;;;;;;5031605;28;19968;-75
2022/07/22 03:07:31;;;;;;;;;;;21.50;75.50;;;;;;5029686;28;19924;-74
2022/07/22 03:09:58;;;;;;;;;;;21.50;75.60;;;;;;5029376;28;21629;-75
2022/07/22 03:12:25;;;;;;;;;;;21.40;75.50;;;;;;5029602;28;20514;-76
2022/07/22 03:14:53;;;;;;;;;;;21.40;75.70;;;;;;5032281;28;19926;-76
2022/07/22 03:17:20;;;;;;;;;;;21.40;75.70;;;;;;5049171;28;19932;-75
2022/07/22 03:19:51;;;;;;;;;;;21.40;75.80;;;;;;5043456;28;20027;-74
2022/07/22 03:22:18;;;;;;;;;;;21.30;75.60;;;;;;5032384;28;20435;-76
2022/07/22 03:24:45;;;;;;;;;;;21.30;75.70;;;;;;5033686;28;19948;-76
2022/07/22 03:27:11;;;;;;;;;;;21.30;75.80;;;;;;5053065;28;20016;-75
2022/07/22 03:29:38;;;;;;;;;;;21.30;75.90;;;;;;5033205;28;19932;-76
2022/07/22 03:32:05;;;;;;;;;;;21.20;75.90;;;;;;5033922;28;20342;-74
2022/07/22 03:34:39;;;;;;;;;;;21.30;76.00;;;;;;5035088;28;20379;-75
2022/07/22 03:37:09;;;;;;;;;;;21.20;75.90;;;;;;5035863;28;20275;-75
2022/07/22 03:39:37;;;;;;;;;;;21.20;75.90;;;;;;5030017;28;19972;-74
2022/07/22 03:42:04;;;;;;;;;;;21.20;75.90;;;;;;5021918;28;20002;-74
2022/07/22 03:44:35;;;;;;;;;;;21.10;75.70;;;;;;5038057;28;19924;-76
2022/07/22 03:47:04;;;;;;;;;;;21.10;75.80;;;;;;5040394;28;19932;-75
2022/07/22 03:49:31;;;;;;;;;;;21.10;75.70;;;;;;5046955;28;19924;-76
2022/07/22 03:51:59;;;;;;;;;;;21.10;75.70;;;;;;5036513;28;19932;-76
2022/07/22 03:54:27;;;;;;;;;;;21.10;75.70;;;;;;5052413;28;19940;-76
2022/07/22 03:59:23;;;;;;;;;;;21.00;75.70;;;;;;4963228;28;19929;-77
2022/07/22 04:01:50;;;;;;;;;;;21.00;75.70;;;;;;5023966;28;20255;-77
2022/07/22 04:04:17;;;;;;;;;;;21.00;76.10;;;;;;5027052;28;19926;-76
2022/07/22 04:06:45;;;;;;;;;;;20.90;76.30;;;;;;5041710;28;19929;-77
2022/07/22 04:09:19;;;;;;;;;;;20.90;76.30;;;;;;4966957;28;20382;-77
2022/07/22 04:11:47;;;;;;;;;;;20.90;76.30;;;;;;4971442;28;19927;-77
2022/07/22 04:14:14;;;;;;;;;;;20.80;76.10;;;;;;5037134;28;19932;-77
2022/07/22 04:16:41;;;;;;;;;;;20.80;76.10;;;;;;5041967;28;19979;-77
2022/07/22 04:19:10;;;;;;;;;;;20.80;76.10;;;;;;5039533;28;19975;-77
2022/07/22 04:22:09;;;;;;;;;;;20.80;76.10;;;;;;5022324;28;20021;-77
2022/07/22 04:24:36;;;;;;;;;;;20.80;76.20;;;;;;5033135;28;19927;-77
2022/07/22 04:27:04;;;;;;;;;;;20.70;76.10;;;;;;5040579;28;19934;-77
2022/07/22 04:29:31;;;;;;;;;;;20.70;76.00;;;;;;5043140;28;19930;-77
2022/07/22 04:31:58;;;;;;;;;;;20.70;76.20;;;;;;5041418;28;19930;-77
2022/07/22 04:34:25;;;;;;;;;;;20.70;76.30;;;;;;5045433;28;19926;-77
2022/07/22 04:36:52;;;;;;;;;;;20.70;76.20;;;;;;5045189;28;19951;-77
2022/07/22 04:39:19;;;;;;;;;;;20.70;76.20;;;;;;5055000;28;20504;-77
2022/07/22 04:41:53;;;;;;;;;;;20.60;76.10;;;;;;5056900;28;19933;-77
2022/07/22 04:44:22;;;;;;;;;;;20.60;76.20;;;;;;5042378;28;20410;-77
2022/07/22 04:46:49;;;;;;;;;;;20.60;76.10;;;;;;5038935;28;19960;-77
2022/07/22 04:49:16;;;;;;;;;;;20.60;76.20;;;;;;5056921;28;20352;-77
2022/07/22 04:51:43;;;;;;;;;;;20.60;76.40;;;;;;5042041;28;20671;-77
2022/07/22 04:54:14;;;;;;;;;;;20.50;76.40;;;;;;5040725;28;19926;-82
2022/07/22 04:56:44;;;;;;;;;;;20.50;76.30;;;;;;5045568;28;21549;-77
2022/07/22 04:59:11;;;;;;;;;;;20.50;76.20;;;;;;5041249;28;19999;-78
2022/07/22 05:01:40;;;;;;;;;;;20.50;76.10;;;;;;5047317;28;19941;-78
2022/07/22 05:04:07;;;;;;;;;;;20.50;76.30;;;;;;5059704;28;19926;-78
2022/07/22 05:06:35;;;;;;;;;;;20.50;76.30;;;;;;5049378;28;19980;-78
2022/07/22 05:09:03;;;;;;;;;;;20.40;76.20;;;;;;5050303;28;19938;-82
2022/07/22 05:11:31;;;;;;;;;;;20.40;75.80;;;;;;5044555;28;20380;-77
2022/07/22 05:14:00;;;;;;;;;;;20.30;75.10;;;;;;5045322;28;19933;-77
2022/07/22 05:16:26;;;;;;;;;;;20.30;74.70;;;;;;5053907;28;19930;-76
2022/07/22 05:18:55;;;;;;;;;;;20.20;75.10;;;;;;5034761;28;19926;-77
2022/07/22 05:21:22;;;;;;;;;;;20.20;75.90;;;;;;5037666;28;20004;-77
2022/07/22 05:23:49;;;;;;;;;;;20.20;75.90;;;;;;4971811;28;19926;-77
2022/07/22 05:26:24;;;;;;;;;;;20.20;76.60;;;;;;5045969;28;19933;-77
2022/07/22 05:28:51;;;;;;;;;;;20.20;78.40;;;;;;5044111;28;20025;-77
2022/07/22 05:31:18;;;;;;;;;;;20.10;78.80;;;;;;5044643;28;19930;-77
2022/07/22 05:33:49;;;;;;;;;;;20.10;78.80;;;;;;5044551;28;19926;-77
2022/07/22 05:36:54;;;;;;;;;;;20.20;78.80;;;;;;4986738;28;19930;-78
2022/07/22 05:39:23;;;;;;;;;;;20.20;78.70;;;;;;5042919;28;20341;-77
2022/07/22 05:41:50;;;;;;;;;;;20.20;78.60;;;;;;5044027;28;19937;-77
2022/07/22 05:44:17;;;;;;;;;;;20.10;78.40;;;;;;5043314;28;19930;-77
2022/07/22 05:46:47;;;;;;;;;;;20.20;78.60;;;;;;5039139;28;20199;-78
2022/07/22 05:49:14;;;;;;;;;;;20.20;78.50;;;;;;5048454;28;21268;-77
2022/07/22 05:51:53;;;;;;;;;;;20.20;78.50;;;;;;5038623;28;20034;-76
2022/07/22 05:54:20;;;;;;;;;;;20.20;78.80;;;;;;4978728;28;19926;-77
2022/07/22 05:56:47;;;;;;;;;;;20.30;78.80;;;;;;5041998;28;20307;-77
2022/07/22 05:59:16;;;;;;;;;;;20.30;78.70;;;;;;5041726;28;20339;-77
2022/07/22 06:01:43;;;;;;;;;;;20.30;78.90;;;;;;5038274;28;20541;-78
2022/07/22 06:04:30;;;;;;;;;;;20.30;78.80;;;;;;4968134;28;19934;-77
2022/07/22 06:07:01;;;;;;;;;;;20.30;78.70;;;;;;5028299;28;19930;-78
2022/07/22 06:09:37;;;;;;;;;;;20.30;79.00;;;;;;5045389;28;19937;-77
2022/07/22 06:12:04;;;;;;;;;;;20.40;79.10;;;;;;5038616;28;20400;-77
2022/07/22 06:14:32;;;;;;;;;;;20.40;78.70;;;;;;5039492;28;20384;-77
2022/07/22 06:17:02;;;;;;;;;;;20.40;78.60;;;;;;5036013;28;20308;-77
2022/07/22 06:19:29;;;;;;;;;;;20.40;78.50;;;;;;5045106;28;20158;-78
2022/07/22 06:21:56;;;;;;;;;;;20.50;78.60;;;;;;5029930;28;19973;-77
2022/07/22 06:24:35;;;;;;;;;;;20.50;78.60;;;;;;5058444;28;19932;-77
2022/07/22 06:27:10;;;;;;;;;;;20.50;78.60;;;;;;5041917;28;20000;-78
2022/07/22 06:29:37;;;;;;;;;;;20.50;78.50;;;;;;5046471;28;19933;-78
2022/07/22 06:32:10;;;;;;;;;;;20.50;78.50;;;;;;5035932;28;19957;-78
2022/07/22 06:34:37;;;;;;;;;;;20.50;78.50;;;;;;5045843;28;19934;-78
2022/07/22 06:37:05;;;;;;;;;;;20.50;78.40;;;;;;5039609;28;19937;-77
2022/07/22 06:39:34;;;;;;;;;;;20.50;78.40;;;;;;5064449;28;20323;-78
2022/07/22 06:42:18;;;;;;;;;;;20.60;78.60;;;;;;5036439;28;19940;-78
2022/07/22 06:45:22;;;;;;;;;;;20.60;78.50;;;;;;4976643;28;20040;-78
2022/07/22 06:47:54;;;;;;;;;;;20.60;78.50;;;;;;4973934;28;20979;-77
2022/07/22 06:50:24;;;;;;;;;;;20.60;78.50;;;;;;4977083;28;19926;-78
2022/07/22 06:52:57;;;;;;;;;;;20.60;78.40;;;;;;5031374;28;19933;-78
2022/07/22 06:55:26;;;;;;;;;;;20.60;78.50;;;;;;5033215;28;20028;-77
2022/07/22 06:58:08;;;;;;;;;;;20.70;78.80;;;;;;4972487;28;19929;-77
2022/07/22 07:00:35;;;;;;;;;;;20.70;78.80;;;;;;5034325;28;19933;-78
2022/07/22 07:03:21;;;;;;;;;;;20.70;78.80;;;;;;4979903;28;20311;-77
2022/07/22 07:05:58;;;;;;;;;;;20.80;79.00;;;;;;5039655;28;19926;-78
2022/07/22 07:08:33;;;;;;;;;;;20.80;79.10;;;;;;5035723;28;19926;-77
2022/07/22 07:11:13;;;;;;;;;;;20.80;79.20;;;;;;5043176;28;19930;-77
2022/07/22 07:13:41;;;;;;;;;;;20.80;79.30;;;;;;5044156;28;19929;-78
2022/07/22 07:16:13;;;;;;;;;;;20.90;79.50;;;;;;5044252;28;20020;-78
2022/07/22 07:18:40;;;;;;;;;;;20.90;79.60;;;;;;4975169;28;20399;-78
2022/07/22 07:21:11;;;;;;;;;;;20.90;79.70;;;;;;4989650;28;20011;-78
2022/07/22 07:23:51;;;;;;;;;;;21.00;79.90;;;;;;5034668;28;19927;-78
2022/07/22 07:26:20;;;;;;;;;;;21.00;79.90;;;;;;4981369;28;20399;-77
2022/07/22 07:28:50;;;;;;;;;;;21.10;80.40;;;;;;4979958;28;19933;-77
2022/07/22 07:31:38;;;;;;;;;;;21.10;80.40;;;;;;5042835;28;19934;-78
2022/07/22 07:34:18;;;;;;;;;;;21.10;80.30;;;;;;5040762;28;20303;-77
2022/07/22 07:36:48;;;;;;;;;;;21.10;80.30;;;;;;5043201;28;19933;-77
2022/07/22 07:39:22;;;;;;;;;;;21.20;80.50;;;;;;5050057;28;19957;-77
2022/07/22 07:41:52;;;;;;;;;;;21.20;80.50;;;;;;5041816;28;20373;-78
2022/07/22 07:44:23;;;;;;;;;;;21.20;80.50;;;;;;5050296;28;19926;-77
2022/07/22 07:47:00;;;;;;;;;;;21.30;80.60;;;;;;5050268;28;19929;-78
2022/07/22 07:49:30;;;;;;;;;;;21.30;80.60;;;;;;5045995;28;20327;-78
2022/07/22 07:52:01;;;;;;;;;;;21.30;80.70;;;;;;5043165;28;20208;-78
2022/07/22 07:54:28;;;;;;;;;;;21.30;80.70;;;;;;5038109;28;19929;-78
2022/07/22 07:56:56;;;;;;;;;;;21.30;80.70;;;;;;5044226;28;19933;-78
2022/07/22 07:59:25;;;;;;;;;;;21.30;80.60;;;;;;5064359;28;19960;-78
2022/07/22 08:02:00;;;;;;;;;;;21.40;80.70;;;;;;5038246;28;19926;-77
2022/07/22 08:04:35;;;;;;;;;;;21.40;80.60;;;;;;5043576;28;20366;-78
2022/07/22 08:07:03;;;;;;;;;;;21.40;80.70;;;;;;5041691;28;19934;-78
2022/07/22 08:09:35;;;;;;;;;;;21.50;80.80;;;;;;5047745;28;19934;-78
2022/07/22 08:12:07;;;;;;;;;;;21.50;80.80;;;;;;5056334;28;20030;-78
2022/07/22 08:14:57;;;;;;;;;;;21.50;80.90;;;;;;4977435;28;19941;-78
2022/07/22 08:17:27;;;;;;;;;;;21.50;80.90;;;;;;4975701;28;19953;-77
2022/07/22 08:19:56;;;;;;;;;;;21.50;80.90;;;;;;5044181;28;19948;-78
2022/07/22 08:22:25;;;;;;;;;;;21.50;80.70;;;;;;5044200;28;20459;-77
2022/07/22 08:24:54;;;;;;;;;;;21.50;80.80;;;;;;5045858;28;20493;-77
2022/07/22 08:27:23;;;;;;;;;;;21.60;80.80;;;;;;5038266;28;20018;-77
2022/07/22 08:29:50;;;;;;;;;;;21.50;80.80;;;;;;5041643;28;20422;-78
2022/07/22 08:32:17;;;;;;;;;;;21.50;80.70;;;;;;4975868;28;20384;-77
2022/07/22 08:34:45;;;;;;;;;;;21.50;80.70;;;;;;4972885;28;19969;-77
2022/07/22 08:37:12;;;;;;;;;;;21.60;80.70;;;;;;4977150;28;19949;-78
2022/07/22 08:39:40;;;;;;;;;;;21.60;80.80;;;;;;5044740;28;20009;-77
2022/07/22 08:42:10;;;;;;;;;;;21.60;80.80;;;;;;5041056;28;19926;-77
2022/07/22 08:44:46;;;;;;;;;;;21.70;81.40;;;;;;5043076;28;19984;-77
2022/07/22 08:47:19;;;;;;;;;;;21.60;80.50;;;;;;5040699;28;19933;-78
2022/07/22 08:50:05;;;;;;;;;;;21.60;80.50;;;;;;4981449;28;19941;-78
2022/07/22 08:52:48;;;;;;;;;;;21.70;80.50;;;;;;5040695;28;20456;-78
2022/07/22 08:55:17;;;;;;;;;;;21.70;80.40;;;;;;5046333;28;19987;-77
2022/07/22 08:57:48;;;;;;;;;;;21.70;80.40;;;;;;5048214;28;19932;-77
2022/07/22 09:00:17;;;;;;;;;;;21.70;80.50;;;;;;5039052;28;20009;-78
2022/07/22 09:02:51;;;;;;;;;;;21.70;79.70;;;;;;5043784;28;20124;-78
2022/07/22 09:05:19;;;;;;;;;;;21.70;80.30;;;;;;5048188;28;20372;-78
2022/07/22 09:07:47;;;;;;;;;;;21.80;80.30;;;;;;5048704;28;19937;-78
2022/07/22 09:10:25;;;;;;;;;;;21.80;80.30;;;;;;5054928;28;19974;-78
2022/07/22 09:13:15;;;;;;;;;;;21.80;80.40;;;;;;4989263;28;20369;-77
2022/07/22 09:15:53;;;;;;;;;;;21.80;80.50;;;;;;4978394;28;19943;-77
2022/07/22 09:18:50;;;;;;;;;;;21.90;80.70;;;;;;4974988;28;19926;-77
2022/07/22 09:21:35;;;;;;;;;;;21.90;80.70;;;;;;4975185;28;19932;-78
2022/07/22 09:24:35;;;;;;;;;;;21.80;80.70;;;;;;5049477;28;20860;-77
2022/07/22 09:27:27;;;;;;;;;;;21.90;80.90;;;;;;4974235;28;19933;-77
2022/07/22 09:30:17;;;;;;;;;;;21.90;80.90;;;;;;4977303;28;19941;-77
2022/07/22 09:32:58;;;;;;;;;;;21.90;80.90;;;;;;5042683;28;19926;-78
2022/07/22 09:35:39;;;;;;;;;;;21.90;80.80;;;;;;5034037;28;20005;-77
2022/07/22 09:40:53;;;;;;;;;;;22.00;80.60;;;;;;5030715;28;20049;-78
2022/07/22 09:43:21;;;;;;;;;;;22.00;81.10;;;;;;5041824;28;19930;-77
2022/07/22 09:45:56;;;;;;;;;;;22.00;81.10;;;;;;5042839;28;19930;-77
2022/07/22 09:48:41;;;;;;;;;;;22.00;81.00;;;;;;5050259;28;19929;-77
2022/07/22 09:51:18;;;;;;;;;;;;;;;;;;4988132;28;19973;-77
2022/07/22 09:54:08;;;;;;;;;;;22.10;80.70;;;;;;4984932;28;19933;-78
2022/07/22 09:56:43;;;;;;;;;;;22.10;81.20;;;;;;5042387;28;20277;-77
2022/07/22 09:59:10;;;;;;;;;;;22.10;81.10;;;;;;5044145;28;19952;-77
2022/07/22 10:01:46;;;;;;;;;;;22.10;80.90;;;;;;5038416;28;19933;-77
2022/07/22 10:04:22;;;;;;;;;;;22.10;81.10;;;;;;5049159;28;19979;-77
2022/07/22 10:06:56;;;;;;;;;;;22.20;81.30;;;;;;5039393;28;19984;-77
2022/07/22 10:09:34;;;;;;;;;;;22.20;80.70;;;;;;5041545;28;20110;-77
2022/07/22 10:12:07;;;;;;;;;;;22.20;81.30;;;;;;5044882;28;19930;-77
2022/07/22 10:14:35;;;;;;;;;;;22.30;81.30;;;;;;5044703;28;20019;-78
2022/07/22 10:17:02;;;;;;;;;;;22.20;81.10;;;;;;5038999;28;21640;-78
2022/07/22 10:19:37;;;;;;;;;;;22.20;81.00;;;;;;4977842;28;19933;-78
2022/07/22 10:22:04;;;;;;;;;;;22.30;81.20;;;;;;5058101;28;19965;-78
2022/07/22 10:24:33;;;;;;;;;;;22.20;80.90;;;;;;4982668;28;19975;-78
2022/07/22 10:27:02;;;;;;;;;;;22.30;80.90;;;;;;5044970;28;19938;-78
2022/07/22 10:29:33;;;;;;;;;;;22.30;80.90;;;;;;4979846;28;20397;-78
2022/07/22 10:32:22;;;;;;;;;;;22.30;80.80;;;;;;5045123;28;19937;-78
2022/07/22 10:35:18;;;;;;;;;;;22.30;80.90;;;;;;5048255;28;20116;-78
2022/07/22 10:37:52;;;;;;;;;;;22.30;80.80;;;;;;5038137;28;19926;-77
2022/07/22 10:40:20;;;;;;;;;;;22.40;80.70;;;;;;4968474;28;19947;-78
2022/07/22 10:43:07;;;;;;;;;;;22.40;80.70;;;;;;5044011;28;19930;-77
2022/07/22 10:45:34;;;;;;;;;;;22.40;80.50;;;;;;5040555;28;20490;-78
2022/07/22 10:48:05;;;;;;;;;;;22.40;80.30;;;;;;5044409;28;19937;-78
2022/07/22 10:50:49;;;;;;;;;;;22.40;80.20;;;;;;4977508;28;20430;-77
2022/07/22 10:53:24;;;;;;;;;;;22.40;80.10;;;;;;4986722;28;19925;-78
2022/07/22 10:56:07;;;;;;;;;;;22.40;80.10;;;;;;4974979;28;19944;-78
2022/07/22 10:58:51;;;;;;;;;;;22.40;80.10;;;;;;4986295;28;19929;-78
2022/07/22 11:01:19;;;;;;;;;;;22.50;80.10;;;;;;5039008;28;20284;-78
2022/07/22 11:03:47;;;;;;;;;;;22.50;80.00;;;;;;4996146;28;20456;-78
2022/07/22 11:06:20;;;;;;;;;;;22.50;79.80;;;;;;4983117;28;19957;-78
2022/07/22 11:08:49;;;;;;;;;;;22.50;79.80;;;;;;4978459;28;19995;-78
2022/07/22 11:11:19;;;;;;;;;;;22.50;79.70;;;;;;4979508;28;19940;-77
2022/07/22 11:13:47;;;;;;;;;;;22.50;79.60;;;;;;4981049;28;19926;-78
2022/07/22 11:16:21;;;;;;;;;;;22.50;79.60;;;;;;4979637;28;20331;-78
2022/07/22 11:18:52;;;;;;;;;;;22.50;79.50;;;;;;5058384;28;19959;-78
2022/07/22 11:21:25;;;;;;;;;;;22.60;79.50;;;;;;5059325;28;19934;-78
2022/07/22 11:23:53;;;;;;;;;;;22.60;79.50;;;;;;4980860;28;19932;-78
2022/07/22 11:26:25;;;;;;;;;;;22.70;79.50;;;;;;5046514;28;20412;-78
2022/07/22 11:28:53;;;;;;;;;;;22.70;79.40;;;;;;4986763;28;19979;-78
2022/07/22 11:31:36;;;;;;;;;;;22.70;79.50;;;;;;5044145;28;19934;-78
2022/07/22 11:34:16;;;;;;;;;;;22.70;79.40;;;;;;4985664;28;19943;-77
2022/07/22 11:36:53;;;;;;;;;;;22.70;79.40;;;;;;4984406;28;19925;-78
2022/07/22 11:39:24;;;;;;;;;;;22.80;79.50;;;;;;5005370;28;20367;-78
2022/07/22 11:41:53;;;;;;;;;;;22.80;79.70;;;;;;4977574;28;20392;-78
2022/07/22 11:44:24;;;;;;;;;;;22.80;79.40;;;;;;4981760;28;19932;-78
2022/07/22 11:46:58;;;;;;;;;;;22.80;79.30;;;;;;4977958;28;19930;-78
2022/07/22 11:49:31;;;;;;;;;;;22.80;79.00;;;;;;4976125;28;19933;-78
2022/07/22 11:51:59;;;;;;;;;;;22.90;79.10;;;;;;4972250;28;20030;-80
2022/07/22 11:54:28;;;;;;;;;;;22.90;79.10;;;;;;4982403;28;19940;-80
2022/07/22 11:56:56;;;;;;;;;;;22.90;79.00;;;;;;4983781;28;20031;-80
2022/07/22 11:59:23;;;;;;;;;;;22.90;78.90;;;;;;4976960;28;20463;-80
2022/07/22 12:01:53;;;;;;;;;;;23.00;79.10;;;;;;5045079;28;20277;-80
2022/07/22 12:04:22;;;;;;;;;;;23.00;79.20;;;;;;4976408;28;19961;-78
2022/07/22 12:06:54;;;;;;;;;;;23.00;78.70;;;;;;5063278;28;19932;-78
2022/07/22 12:09:23;;;;;;;;;;;23.10;78.80;;;;;;4977108;28;19936;-78
2022/07/22 12:11:55;;;;;;;;;;;23.10;78.70;;;;;;4974741;28;20564;-78
2022/07/22 12:14:22;;;;;;;;;;;23.20;78.40;;;;;;4980103;28;20389;-78
2022/07/22 12:16:54;;;;;;;;;;;23.20;78.30;;;;;;5051093;28;19926;-78
2022/07/22 12:19:21;;;;;;;;;;;23.20;78.10;;;;;;4983635;28;19930;-78
2022/07/22 12:21:58;;;;;;;;;;;23.30;78.40;;;;;;4985730;28;19934;-78
2022/07/22 12:24:36;;;;;;;;;;;23.30;78.60;;;;;;5049017;28;19952;-78
2022/07/22 12:27:08;;;;;;;;;;;23.30;78.80;;;;;;5045979;28;20331;-78
2022/07/22 12:29:45;;;;;;;;;;;23.40;78.80;;;;;;5047235;28;19930;-78
2022/07/22 12:32:15;;;;;;;;;;;23.40;78.80;;;;;;5059099;28;20380;-80
2022/07/22 12:34:44;;;;;;;;;;;23.50;79.00;;;;;;4988288;28;20334;-80
2022/07/22 12:37:18;;;;;;;;;;;23.50;79.10;;;;;;4986185;28;19926;-80
2022/07/22 12:40:07;;;;;;;;;;;23.60;78.70;;;;;;4977629;28;19933;-78
2022/07/22 12:42:41;;;;;;;;;;;23.60;78.30;;;;;;4980858;28;19934;-78
2022/07/22 12:45:11;;;;;;;;;;;23.70;78.00;;;;;;4988546;28;20573;-78
2022/07/22 12:47:43;;;;;;;;;;;23.70;78.00;;;;;;4982762;28;19933;-78
2022/07/22 12:50:20;;;;;;;;;;;23.80;77.50;;;;;;4978496;28;19925;-78
2022/07/22 12:52:53;;;;;;;;;;;23.80;78.00;;;;;;4980233;28;20020;-79
2022/07/22 12:55:46;;;;;;;;;;;23.90;78.30;;;;;;4991536;28;19925;-77
2022/07/22 12:58:16;;;;;;;;;;;23.90;78.20;;;;;;4987060;28;20236;-81
2022/07/22 13:00:44;;;;;;;;;;;24.00;78.40;;;;;;4987583;28;20348;-82
2022/07/22 13:03:11;;;;;;;;;;;24.00;78.40;;;;;;4987313;28;19970;-81
2022/07/22 13:05:40;;;;;;;;;;;24.10;78.50;;;;;;4988674;28;19969;-80
2022/07/22 13:10:53;;;;;;;;;;;24.20;78.60;;;;;;4993849;28;19925;-78
2022/07/22 13:13:25;;;;;;;;;;;24.20;78.60;;;;;;5000383;28;20416;-77
2022/07/22 13:15:56;;;;;;;;;;;24.40;78.80;;;;;;4978053;28;19934;-77
2022/07/22 13:18:23;;;;;;;;;;;24.40;78.70;;;;;;5047960;28;19965;-81
2022/07/22 13:20:55;;;;;;;;;;;24.50;78.80;;;;;;4985215;28;19926;-79
2022/07/22 13:23:24;;;;;;;;;;;24.50;78.80;;;;;;5071109;28;19964;-79
2022/07/22 13:26:00;;;;;;;;;;;24.60;78.70;;;;;;4977115;28;19957;-78
2022/07/22 13:28:29;;;;;;;;;;;24.70;77.90;;;;;;5052997;28;19925;-78
2022/07/22 13:31:04;;;;;;;;;;;24.70;78.50;;;;;;5049286;28;19926;-78
2022/07/22 13:33:31;;;;;;;;;;;24.70;78.10;;;;;;4982053;28;20457;-78
2022/07/22 13:36:14;;;;;;;;;;;24.80;78.10;;;;;;4981625;28;19979;-79
2022/07/22 13:38:47;;;;;;;;;;;24.80;78.10;;;;;;5043562;28;19930;-79
2022/07/22 13:41:23;;;;;;;;;;;24.90;78.20;;;;;;4971043;28;19933;-78
2022/07/22 13:43:54;;;;;;;;;;;25.00;76.80;;;;;;4971813;28;20139;-82
2022/07/22 13:46:24;;;;;;;;;;;25.10;76.10;;;;;;4971892;28;19980;-77
2022/07/22 13:48:51;;;;;;;;;;;;;;;;;;4971058;28;19979;-77
2022/07/22 13:51:18;;;;;;;;;;;25.30;76.30;;;;;;4974889;28;19926;-78
2022/07/22 13:53:45;;;;;;;;;;;25.30;76.90;;;;;;4975374;28;19934;-77
2022/07/22 13:56:12;;;;;;;;;;;25.30;76.80;;;;;;4966789;28;19968;-77
2022/07/22 13:58:41;;;;;;;;;;;25.40;76.80;;;;;;4962770;28;19944;-77
2022/07/22 14:01:10;;;;;;;;;;;25.50;76.50;;;;;;5030675;28;20030;-77
2022/07/22 14:03:37;;;;;;;;;;;25.50;77.00;;;;;;4962196;28;20026;-77
2022/07/22 14:06:04;;;;;;;;;;;25.60;76.90;;;;;;5026404;28;19957;-78
2022/07/22 14:08:31;;;;;;;;;;;25.60;76.90;;;;;;5025360;28;19941;-77
2022/07/22 14:10:58;;;;;;;;;;;25.70;76.90;;;;;;4968151;28;19934;-79
2022/07/22 14:13:25;;;;;;;;;;;25.80;76.90;;;;;;5025594;28;20403;-79
2022/07/22 14:15:53;;;;;;;;;;;25.80;76.50;;;;;;5040960;28;20318;-79
2022/07/22 14:18:20;;;;;;;;;;;25.90;76.50;;;;;;4965353;28;19944;-80
2022/07/22 14:20:47;;;;;;;;;;;25.90;76.40;;;;;;4962967;28;19934;-80
2022/07/22 14:23:16;;;;;;;;;;;26.00;76.10;;;;;;5018386;28;19995;-79
2022/07/22 14:25:46;;;;;;;;;;;26.00;76.00;;;;;;5012218;28;20202;-79
2022/07/22 14:28:13;;;;;;;;;;;26.10;75.80;;;;;;4967765;28;20203;-79
2022/07/22 14:30:40;;;;;;;;;;;26.20;76.00;;;;;;5030309;28;20532;-79
2022/07/22 14:33:08;;;;;;;;;;;26.20;75.90;;;;;;4965442;28;19930;-80
2022/07/22 14:35:35;;;;;;;;;;;26.30;75.90;;;;;;4972911;28;19965;-79
2022/07/22 14:38:02;;;;;;;;;;;26.30;75.90;;;;;;5018984;28;19938;-79
2022/07/22 14:40:29;;;;;;;;;;;26.40;75.90;;;;;;4967350;28;19935;-80
2022/07/22 14:42:56;;;;;;;;;;;26.50;76.00;;;;;;4964371;28;20371;-80
2022/07/22 14:45:23;;;;;;;;;;;26.50;75.70;;;;;;4956301;28;19989;-82
2022/07/22 14:47:50;;;;;;;;;;;26.60;76.00;;;;;;4956467;28;19937;-81